createdAt,value
2024-01-10T00:01:22.210Z,99456.31
2024-01-10T00:03:52.118Z,99462.53
2024-01-10T00:06:20.567Z,99459.00
2024-01-10T00:08:48.522Z,99458.13
2024-01-10T00:11:16.624Z,99461.47
2024-01-10T00:13:44.712Z,99453.78
2024-01-10T00:16:14.283Z,99455.56
2024-01-10T00:18:42.377Z,99450.81
2024-01-10T00:21:12.242Z,99449.53
2024-01-10T00:23:40.162Z,99446.13
2024-01-10T00:26:08.170Z,99446.06
2024-01-10T00:28:36.163Z,99446.06
2024-01-10T00:31:04.216Z,99444.34
2024-01-10T00:33:32.928Z,99445.78
2024-01-10T00:36:01.173Z,99434.56
2024-01-10T00:38:30.443Z,99439.38
2024-01-10T00:40:58.414Z,99439.16
2024-01-10T00:43:26.447Z,99439.94
2024-01-10T00:45:54.323Z,99440.34
2024-01-10T00:48:22.334Z,99439.72
2024-01-10T00:50:50.422Z,99438.25
2024-01-10T00:53:18.403Z,99441.63
2024-01-10T00:55:47.734Z,99438.03
2024-01-10T00:58:18.081Z,99439.16
2024-01-10T01:00:46.104Z,99440.38
2024-01-10T01:03:14.021Z,99441.59
2024-01-10T01:05:42.548Z,99442.59
2024-01-10T01:08:10.560Z,99434.25
2024-01-10T01:10:38.776Z,99444.44
2024-01-10T01:13:08.256Z,99445.19
2024-01-10T01:15:36.221Z,99447.22
2024-01-10T01:18:07.071Z,99451.56
2024-01-10T01:20:35.182Z,99450.75
2024-01-10T01:23:03.226Z,99457.25
2024-01-10T01:25:31.303Z,99453.84
2024-01-10T01:27:59.176Z,99456.66
2024-01-10T01:30:28.554Z,99459.56
2024-01-10T01:32:56.670Z,99457.84
2024-01-10T01:35:24.786Z,99459.44
2024-01-10T01:37:52.966Z,99449.94
2024-01-10T01:40:21.164Z,99454.22
2024-01-10T01:42:49.221Z,99452.53
2024-01-10T01:45:17.278Z,99452.50
2024-01-10T01:47:47.412Z,99449.75
2024-01-10T01:50:15.713Z,99446.22
2024-01-10T01:52:44.010Z,99444.69
2024-01-10T01:55:12.708Z,99438.59
2024-01-10T01:57:40.704Z,99443.84
2024-01-10T02:00:10.939Z,99432.16
2024-01-10T02:02:39.520Z,99438.66
2024-01-10T02:05:09.338Z,99443.13
2024-01-10T02:07:37.449Z,99435.94
2024-01-10T02:10:06.029Z,99441.22
2024-01-10T02:12:33.971Z,99437.47
2024-01-10T02:15:01.997Z,99446.09
2024-01-10T02:17:32.358Z,99440.16
2024-01-10T02:20:11.932Z,99438.28
2024-01-10T02:22:40.081Z,99441.53
2024-01-10T02:25:10.872Z,99437.44
2024-01-10T02:27:39.594Z,99439.28
2024-01-10T02:30:09.658Z,99422.25
2024-01-10T02:32:37.794Z,99423.81
2024-01-10T02:35:06.600Z,99422.13
2024-01-10T02:37:34.533Z,99431.34
2024-01-10T02:40:02.536Z,99420.59
2024-01-10T02:42:32.320Z,99418.41
2024-01-10T02:45:00.412Z,99415.91
2024-01-10T02:47:31.155Z,99416.00
2024-01-10T02:49:59.245Z,99418.13
2024-01-10T02:52:29.284Z,99418.13
2024-01-10T02:54:57.273Z,99414.63
2024-01-10T02:57:25.328Z,99413.72
2024-01-10T02:59:55.016Z,99413.59
2024-01-10T03:02:24.706Z,99422.66
2024-01-10T03:04:55.842Z,99416.44
2024-01-10T03:07:25.973Z,99418.22
2024-01-10T03:09:54.215Z,99406.97
2024-01-10T03:12:22.130Z,99411.16
2024-01-10T03:14:50.113Z,99413.44
2024-01-10T03:17:21.876Z,99410.09
2024-01-10T03:19:50.029Z,99408.84
2024-01-10T03:22:17.917Z,99402.84
2024-01-10T03:24:45.991Z,99405.50
2024-01-10T03:27:13.954Z,99401.34
2024-01-10T03:29:41.823Z,99393.66
2024-01-10T03:32:09.811Z,99394.97
2024-01-10T03:34:39.565Z,99384.03
2024-01-10T03:37:07.793Z,99389.06
2024-01-10T03:39:35.836Z,99396.50
2024-01-10T03:42:06.125Z,99397.44
2024-01-10T03:44:34.031Z,99392.47
2024-01-10T03:47:02.121Z,99392.81
2024-01-10T03:49:32.619Z,99389.50
2024-01-10T03:52:01.980Z,99393.50
2024-01-10T03:54:29.931Z,99395.41
2024-01-10T03:56:57.840Z,99402.03
2024-01-10T03:59:25.870Z,99393.59
2024-01-10T04:01:53.944Z,99390.03
2024-01-10T04:04:21.883Z,99384.53
2024-01-10T04:06:49.781Z,99390.31
2024-01-10T04:09:19.253Z,99394.75
2024-01-10T04:11:47.760Z,99401.47
2024-01-10T04:14:16.762Z,99404.53
2024-01-10T04:16:44.808Z,99398.50
2024-01-10T04:19:12.838Z,99398.03
2024-01-10T04:21:41.980Z,99411.84
2024-01-10T04:24:09.940Z,99407.78
2024-01-10T04:26:39.239Z,99400.31
2024-01-10T04:29:07.373Z,99411.06
2024-01-10T04:31:36.833Z,99406.16
2024-01-10T04:34:05.120Z,99403.16
2024-01-10T04:36:33.004Z,99399.00
2024-01-10T04:39:00.938Z,99393.75
2024-01-10T04:41:28.975Z,99390.34
2024-01-10T04:43:58.376Z,99390.50
2024-01-10T04:46:26.351Z,99386.81
2024-01-10T04:48:54.415Z,99390.88
2024-01-10T04:51:22.533Z,99390.69
2024-01-10T04:53:50.587Z,99384.69
2024-01-10T04:56:18.628Z,99388.88
2024-01-10T04:58:47.703Z,99392.63
2024-01-10T05:01:17.237Z,99390.59
2024-01-10T05:03:45.270Z,99391.53
2024-01-10T05:06:13.431Z,99392.84
2024-01-10T05:08:41.360Z,99400.03
2024-01-10T05:11:09.362Z,99403.31
2024-01-10T05:13:37.465Z,99405.91
2024-01-10T05:16:08.046Z,99402.69
2024-01-10T05:18:37.374Z,99403.63
2024-01-10T05:21:05.960Z,99403.06
2024-01-10T05:23:33.880Z,99408.56
2024-01-10T05:26:01.816Z,99402.09
2024-01-10T05:28:29.692Z,99399.06
2024-01-10T05:30:57.569Z,99397.53
2024-01-10T05:33:25.834Z,99395.63
2024-01-10T05:35:55.959Z,99397.13
2024-01-10T05:38:23.940Z,99400.72
2024-01-10T05:40:53.113Z,99400.53
2024-01-10T05:43:21.277Z,99401.31
2024-01-10T05:45:49.492Z,99396.44
2024-01-10T05:48:18.598Z,99400.91
2024-01-10T05:50:46.641Z,99403.06
2024-01-10T05:53:18.474Z,99403.72
2024-01-10T05:55:46.726Z,99399.34
2024-01-10T05:58:14.702Z,99398.78
2024-01-10T06:00:42.578Z,99399.44
2024-01-10T06:03:10.566Z,99401.19
2024-01-10T06:05:38.622Z,99400.13
2024-01-10T06:08:06.967Z,99398.00
2024-01-10T06:10:38.160Z,99403.72
2024-01-10T06:13:06.583Z,99401.28
2024-01-10T06:15:35.301Z,99415.97
2024-01-10T06:18:04.846Z,99407.66
2024-01-10T06:20:34.047Z,99414.06
2024-01-10T06:23:02.026Z,99414.25
2024-01-10T06:25:29.968Z,99408.41
2024-01-10T06:27:59.379Z,99420.47
2024-01-10T06:30:27.986Z,99415.97
2024-01-10T06:32:56.388Z,99413.53
2024-01-10T06:35:24.546Z,99424.06
2024-01-10T06:37:52.887Z,99424.75
2024-01-10T06:40:22.919Z,99425.72
2024-01-10T06:42:50.951Z,99414.72
2024-01-10T06:45:21.277Z,99418.91
2024-01-10T06:47:49.472Z,99435.00
2024-01-10T06:50:18.036Z,99420.28
2024-01-10T06:52:45.926Z,99424.72
2024-01-10T06:55:14.012Z,99426.75
2024-01-10T06:57:42.021Z,99433.09
2024-01-10T07:00:12.242Z,99431.09
2024-01-10T07:02:42.293Z,99427.72
2024-01-10T07:05:11.211Z,99433.41
2024-01-10T07:07:39.220Z,99438.72
2024-01-10T07:10:07.978Z,99431.41
2024-01-10T07:12:36.385Z,99429.91
2024-01-10T07:15:05.254Z,99426.25
2024-01-10T07:17:34.524Z,99423.28
2024-01-10T07:20:05.244Z,99433.19
2024-01-10T07:22:33.436Z,99429.78
2024-01-10T07:25:01.612Z,99433.41
2024-01-10T07:27:29.601Z,99442.44
2024-01-10T07:29:58.781Z,99443.97
2024-01-10T07:32:26.896Z,99443.88
2024-01-10T07:34:55.008Z,99445.44
2024-01-10T07:37:24.405Z,99446.59
2024-01-10T07:39:52.570Z,99455.88
2024-01-10T07:42:20.571Z,99455.94
2024-01-10T07:44:52.494Z,99449.72
2024-01-10T07:47:22.245Z,99456.50
2024-01-10T07:49:52.880Z,99463.59
2024-01-10T07:52:23.806Z,99461.78
2024-01-10T07:55:24.591Z,99468.53
2024-01-10T07:58:04.101Z,99457.69
2024-01-10T08:00:32.220Z,99468.34
2024-01-10T08:03:00.750Z,99471.38
2024-01-10T08:05:29.500Z,99469.75
2024-01-10T08:07:59.561Z,99477.28
2024-01-10T08:10:29.546Z,99481.47
2024-01-10T08:12:58.407Z,99484.59
2024-01-10T08:15:26.581Z,99487.94
2024-01-10T08:17:55.031Z,99479.59
2024-01-10T08:20:23.939Z,99485.00
2024-01-10T08:22:52.266Z,99483.59
2024-01-10T08:25:20.426Z,99481.91
2024-01-10T08:27:50.122Z,99480.66
2024-01-10T08:30:18.426Z,99486.06
2024-01-10T08:32:46.705Z,99493.56
2024-01-10T08:35:15.037Z,99493.94
2024-01-10T08:37:45.571Z,99493.38
2024-01-10T08:40:16.303Z,99495.09
2024-01-10T08:42:44.692Z,99493.19
2024-01-10T08:45:16.072Z,99496.53
2024-01-10T08:47:44.882Z,99494.78
2024-01-10T08:50:13.186Z,99493.38
2024-01-10T08:52:41.403Z,99492.09
2024-01-10T08:55:13.560Z,99494.69
2024-01-10T08:57:42.609Z,99493.22
2024-01-10T09:00:13.478Z,99495.94
2024-01-10T09:02:43.395Z,99496.34
2024-01-10T09:05:12.323Z,99498.63
2024-01-10T09:07:41.338Z,99494.81
2024-01-10T09:10:10.179Z,99497.06
2024-01-10T09:12:38.521Z,99497.06
2024-01-10T09:15:09.480Z,99505.69
2024-01-10T09:17:37.696Z,99514.25
2024-01-10T09:20:09.673Z,99509.97
2024-01-10T09:22:39.095Z,99508.78
2024-01-10T09:25:08.225Z,99512.50
2024-01-10T09:27:37.337Z,99506.28
2024-01-10T09:30:09.779Z,99505.47
2024-01-10T09:32:39.102Z,99507.22
2024-01-10T09:35:10.407Z,99515.41
2024-01-10T09:37:38.701Z,99516.34
2024-01-10T09:40:08.545Z,99508.53
2024-01-10T09:42:38.802Z,99523.88
2024-01-10T09:45:09.309Z,99523.50
2024-01-10T09:47:40.052Z,99519.28
2024-01-10T09:50:11.434Z,99522.78
2024-01-10T09:52:44.448Z,99522.59
2024-01-10T09:55:15.339Z,99526.75
2024-01-10T09:57:43.441Z,99514.16
2024-01-10T10:00:13.102Z,99519.50
2024-01-10T10:02:42.158Z,99509.69
2024-01-10T10:05:16.685Z,99510.69
2024-01-10T10:07:49.519Z,99511.34
2024-01-10T10:10:18.637Z,99510.50
2024-01-10T10:12:48.521Z,99507.00
2024-01-10T10:15:19.947Z,99510.72
2024-01-10T10:17:49.857Z,99505.50
2024-01-10T10:20:23.860Z,99504.13
2024-01-10T10:23:11.805Z,99505.31
2024-01-10T10:25:45.827Z,99494.56
2024-01-10T10:28:24.864Z,99488.69
2024-01-10T10:30:58.488Z,99496.91
2024-01-10T10:33:26.922Z,99491.06
2024-01-10T10:35:56.742Z,99495.69
2024-01-10T10:38:25.108Z,99496.94
2024-01-10T10:40:54.220Z,99492.34
2024-01-10T10:43:24.159Z,99488.53
2024-01-10T10:45:52.681Z,99486.19
2024-01-10T10:48:23.075Z,99489.88
2024-01-10T10:51:01.745Z,99494.41
2024-01-10T10:53:31.365Z,99486.97
2024-01-10T10:56:01.581Z,99494.03
2024-01-10T10:58:30.281Z,99489.09
2024-01-10T11:01:00.369Z,99489.28
2024-01-10T11:03:30.816Z,99487.22
2024-01-10T11:06:03.791Z,99493.94
2024-01-10T11:08:36.223Z,99495.19
2024-01-10T11:11:08.505Z,99487.06
2024-01-10T11:13:53.965Z,99492.06
2024-01-10T11:16:43.940Z,99483.72
2024-01-10T11:19:44.592Z,99486.69
2024-01-10T11:22:24.450Z,99483.16
2024-01-10T11:24:52.962Z,99484.28
2024-01-10T11:27:21.274Z,99488.75
2024-01-10T11:29:49.490Z,99477.72
2024-01-10T11:32:18.658Z,99476.81
2024-01-10T11:34:57.006Z,99475.13
2024-01-10T11:37:30.905Z,99481.25
2024-01-10T11:39:59.138Z,99477.25
2024-01-10T11:42:43.466Z,99474.53
2024-01-10T11:45:11.559Z,99478.13
2024-01-10T11:47:42.352Z,99472.31
2024-01-10T11:50:11.007Z,99468.91
2024-01-10T11:52:40.500Z,99471.69
2024-01-10T11:55:09.832Z,99469.94
2024-01-10T11:57:38.447Z,99469.31
2024-01-10T12:00:09.223Z,99468.16
2024-01-10T12:02:38.817Z,99468.72
2024-01-10T12:05:08.419Z,99469.47
2024-01-10T12:07:36.683Z,99472.31
2024-01-10T12:10:07.150Z,99466.72
2024-01-10T12:12:35.599Z,99465.16
2024-01-10T12:15:04.109Z,99465.19
2024-01-10T12:17:32.318Z,99470.66
2024-01-10T12:20:00.969Z,99464.56
2024-01-10T12:22:30.057Z,99466.59
2024-01-10T12:25:09.192Z,99468.56
2024-01-10T12:27:41.109Z,99464.50
2024-01-10T12:30:11.364Z,99457.31
2024-01-10T12:32:39.809Z,99455.31
2024-01-10T12:35:09.049Z,99461.69
2024-01-10T12:37:37.523Z,99465.38
2024-01-10T12:40:11.190Z,99455.09
2024-01-10T12:43:24.162Z,99457.56
2024-01-10T12:46:05.761Z,99461.63
2024-01-10T12:48:34.646Z,99461.72
2024-01-10T12:51:05.330Z,99461.69
2024-01-10T12:53:33.962Z,99457.09
2024-01-10T12:56:04.388Z,99461.34
2024-01-10T12:58:33.972Z,99460.19
2024-01-10T13:01:02.267Z,99464.63
2024-01-10T13:03:30.454Z,99461.47
2024-01-10T13:05:59.701Z,99454.16
2024-01-10T13:08:28.106Z,99452.91
2024-01-10T13:10:57.132Z,99459.56
2024-01-10T13:13:26.699Z,99459.38
2024-01-10T13:15:57.080Z,99450.50
2024-01-10T13:18:25.892Z,99446.69
2024-01-10T13:20:54.540Z,99447.75
2024-01-10T13:23:24.375Z,99446.94
2024-01-10T13:25:52.832Z,99449.25
2024-01-10T13:28:21.071Z,99446.16
2024-01-10T13:30:52.128Z,99447.84
2024-01-10T13:33:21.774Z,99451.19
2024-01-10T13:35:50.809Z,99455.59
2024-01-10T13:38:18.989Z,99448.59
2024-01-10T13:40:48.472Z,99456.63
2024-01-10T13:43:16.885Z,99459.16
2024-01-10T13:45:45.088Z,99461.59
2024-01-10T13:48:15.408Z,99460.00
2024-01-10T13:50:43.784Z,99464.06
2024-01-10T13:53:12.213Z,99466.41
2024-01-10T13:55:41.341Z,99462.78
2024-01-10T13:58:09.753Z,99464.22
2024-01-10T14:00:39.484Z,99454.94
2024-01-10T14:03:10.871Z,99452.69
2024-01-10T14:05:41.056Z,99449.97
2024-01-10T14:08:10.196Z,99460.84
2024-01-10T14:10:40.132Z,99449.28
2024-01-10T14:13:08.509Z,99455.16
2024-01-10T14:15:36.948Z,99451.06
2024-01-10T14:18:06.031Z,99460.28
2024-01-10T14:20:34.512Z,99459.81
2024-01-10T14:23:04.391Z,99454.06
2024-01-10T14:25:32.843Z,99457.38
2024-01-10T14:28:01.614Z,99459.88
2024-01-10T14:30:29.911Z,99468.63
2024-01-10T14:33:00.669Z,99460.75
2024-01-10T14:35:29.270Z,99463.94
2024-01-10T14:37:57.610Z,99471.81
2024-01-10T14:40:27.120Z,99468.19
2024-01-10T14:42:55.240Z,99465.50
2024-01-10T14:45:23.791Z,99472.47
2024-01-10T14:47:52.659Z,99467.03
2024-01-10T14:50:20.798Z,99466.94
2024-01-10T14:52:49.231Z,99463.47
2024-01-10T14:55:17.645Z,99460.22
2024-01-10T14:57:47.669Z,99459.31
2024-01-10T15:00:22.282Z,99459.44
2024-01-10T15:02:54.325Z,99466.59
2024-01-10T15:05:27.440Z,99469.13
2024-01-10T15:07:56.067Z,99469.72
2024-01-10T15:10:24.206Z,99468.34
2024-01-10T15:12:53.685Z,99468.28
2024-01-10T15:15:22.105Z,99483.31
2024-01-10T15:17:50.729Z,99481.03
2024-01-10T15:20:19.022Z,99481.53
2024-01-10T15:22:47.610Z,99482.03
2024-01-10T15:25:15.953Z,99493.53
2024-01-10T15:27:44.088Z,99486.66
2024-01-10T15:30:16.943Z,99488.69
2024-01-10T15:32:45.757Z,99483.09
2024-01-10T15:35:14.700Z,99494.28
2024-01-10T15:37:43.864Z,99494.28
2024-01-10T15:40:13.021Z,99494.03
2024-01-10T15:42:41.217Z,99496.25
2024-01-10T15:45:10.640Z,99499.16
2024-01-10T15:47:42.532Z,99500.72
2024-01-10T15:50:12.346Z,99512.31
2024-01-10T15:52:40.980Z,99512.31
2024-01-10T15:55:50.846Z,99512.28
2024-01-10T15:58:54.714Z,99511.34
2024-01-10T16:01:32.835Z,99517.47
2024-01-10T16:04:02.950Z,99516.25
2024-01-10T16:06:33.605Z,99518.59
2024-01-10T16:09:05.065Z,99511.28
2024-01-10T16:11:44.454Z,99510.09
2024-01-10T16:14:12.892Z,99519.66
2024-01-10T16:16:41.030Z,99523.03
2024-01-10T16:19:10.920Z,99518.84
2024-01-10T16:21:39.196Z,99524.34
2024-01-10T16:24:09.208Z,99517.63
2024-01-10T16:26:37.970Z,99521.59
2024-01-10T16:29:06.494Z,99518.25
2024-01-10T16:31:38.115Z,99521.06
2024-01-10T16:34:06.285Z,99517.03
2024-01-10T16:36:35.742Z,99523.44
2024-01-10T16:39:03.992Z,99526.13
2024-01-10T16:41:33.741Z,99528.03
2024-01-10T16:44:01.924Z,99523.13
2024-01-10T16:46:30.121Z,99522.97
2024-01-10T16:48:58.251Z,99524.72
2024-01-10T16:51:26.465Z,99520.69
2024-01-10T16:53:55.906Z,99525.53
2024-01-10T16:56:24.052Z,99531.50
2024-01-10T16:58:53.248Z,99525.03
2024-01-10T17:01:21.731Z,99535.72
2024-01-10T17:03:50.573Z,99534.25
2024-01-10T17:06:19.311Z,99529.06
2024-01-10T17:08:47.842Z,99532.41
2024-01-10T17:11:18.995Z,99530.09
2024-01-10T17:13:48.200Z,99535.47
2024-01-10T17:16:16.875Z,99532.22
2024-01-10T17:18:45.469Z,99536.81
2024-01-10T17:21:14.003Z,99536.94
2024-01-10T17:23:43.077Z,99541.38
2024-01-10T17:26:11.471Z,99543.34
2024-01-10T17:28:40.937Z,99538.13
2024-01-10T17:31:09.083Z,99545.66
2024-01-10T17:33:37.446Z,99539.69
2024-01-10T17:36:08.056Z,99548.06
2024-01-10T17:38:36.624Z,99551.34
2024-01-10T17:41:04.969Z,99547.75
2024-01-10T17:43:33.029Z,99549.53
2024-01-10T17:46:02.563Z,99550.25
2024-01-10T17:48:30.860Z,99543.22
2024-01-10T17:50:59.127Z,99540.69
2024-01-10T17:53:27.254Z,99538.16
2024-01-10T17:55:57.812Z,99539.91
2024-01-10T17:58:25.902Z,99543.44
2024-01-10T18:00:56.749Z,99546.94
2024-01-10T18:03:26.320Z,99551.97
2024-01-10T18:05:57.114Z,99543.56
2024-01-10T18:08:25.271Z,99551.34
2024-01-10T18:10:55.454Z,99544.75
2024-01-10T18:13:23.720Z,99543.22
2024-01-10T18:15:52.142Z,99546.34
2024-01-10T18:18:21.538Z,99540.91
2024-01-10T18:20:52.827Z,99540.69
2024-01-10T18:23:21.164Z,99544.81
2024-01-10T18:25:51.369Z,99546.00
2024-01-10T18:28:21.937Z,99544.78
2024-01-10T18:30:50.071Z,99546.91
2024-01-10T18:33:18.312Z,99549.50
2024-01-10T18:35:46.836Z,99536.94
2024-01-10T18:38:17.695Z,99548.19
2024-01-10T18:40:46.760Z,99553.38
2024-01-10T18:43:15.581Z,99555.56
2024-01-10T18:45:44.236Z,99563.66
2024-01-10T18:48:13.079Z,99554.91
2024-01-10T18:50:41.979Z,99556.53
2024-01-10T18:53:10.759Z,99556.13
2024-01-10T18:55:41.016Z,99554.69
2024-01-10T18:58:11.722Z,99553.97
2024-01-10T19:00:41.279Z,99551.19
2024-01-10T19:03:09.502Z,99557.78
2024-01-10T19:05:37.982Z,99562.88
2024-01-10T19:08:06.677Z,99552.34
2024-01-10T19:10:35.260Z,99555.56
2024-01-10T19:13:05.567Z,99558.19
2024-01-10T19:15:34.615Z,99556.13
2024-01-10T19:18:03.550Z,99560.75
2024-01-10T19:20:32.275Z,99561.09
2024-01-10T19:23:03.465Z,99561.00
2024-01-10T19:25:35.389Z,99561.97
2024-01-10T19:28:05.773Z,99557.16
2024-01-10T19:30:36.239Z,99558.06
2024-01-10T19:33:05.902Z,99559.63
2024-01-10T19:35:36.240Z,99557.75
2024-01-10T19:38:05.325Z,99560.41
2024-01-10T19:40:35.754Z,99558.84
2024-01-10T19:43:05.970Z,99557.00
2024-01-10T19:45:34.871Z,99560.69
2024-01-10T19:48:03.049Z,99563.50
2024-01-10T19:50:31.590Z,99563.34
2024-01-10T19:52:59.732Z,99568.38
2024-01-10T19:55:27.906Z,99569.97
2024-01-10T19:57:56.347Z,99563.09
2024-01-10T20:00:27.590Z,99570.69
2024-01-10T20:02:55.822Z,99565.44
2024-01-10T20:05:25.143Z,99565.41
2024-01-10T20:07:54.469Z,99562.22
2024-01-10T20:10:25.537Z,99563.34
2024-01-10T20:12:54.447Z,99563.34
2024-01-10T20:15:23.292Z,99573.03
2024-01-10T20:17:53.865Z,99568.66
2024-01-10T20:20:22.518Z,99570.56
2024-01-10T20:22:50.716Z,99571.75
2024-01-10T20:25:18.719Z,99573.94
2024-01-10T20:27:46.668Z,99565.72
2024-01-10T20:30:15.524Z,99566.41
2024-01-10T20:32:44.294Z,99574.88
2024-01-10T20:35:13.755Z,99570.84
2024-01-10T20:37:42.342Z,99570.53
2024-01-10T20:40:14.023Z,99571.59
2024-01-10T20:42:44.080Z,99576.53
2024-01-10T20:45:17.484Z,99576.19
2024-01-10T20:47:46.006Z,99581.38
2024-01-10T20:50:15.490Z,99580.34
2024-01-10T20:52:44.237Z,99579.47
2024-01-10T20:55:12.245Z,99578.06
2024-01-10T20:57:40.564Z,99571.19
2024-01-10T21:00:11.719Z,99578.09
2024-01-10T21:02:39.956Z,99579.19
2024-01-10T21:05:09.480Z,99584.59
2024-01-10T21:07:39.095Z,99571.22
2024-01-10T21:10:07.611Z,99573.47
2024-01-10T21:12:35.550Z,99580.94
2024-01-10T21:15:06.961Z,99580.31
2024-01-10T21:17:35.049Z,99580.00
2024-01-10T21:20:03.592Z,99578.97
2024-01-10T21:22:32.217Z,99575.22
2024-01-10T21:25:01.471Z,99580.69
2024-01-10T21:27:29.374Z,99573.47
2024-01-10T21:29:57.321Z,99581.16
2024-01-10T21:32:25.270Z,99572.09
2024-01-10T21:34:53.411Z,99566.63
2024-01-10T21:37:21.854Z,99572.03
2024-01-10T21:39:49.845Z,99569.44
2024-01-10T21:42:19.424Z,99565.53
2024-01-10T21:44:47.340Z,99575.72
2024-01-10T21:47:16.178Z,99577.41
2024-01-10T21:49:44.945Z,99576.16
2024-01-10T21:52:13.385Z,99577.72
2024-01-10T21:54:41.632Z,99571.06
2024-01-10T21:57:09.772Z,99574.81
2024-01-10T21:59:41.674Z,99580.50
2024-01-10T22:02:09.762Z,99573.34
2024-01-10T22:04:37.836Z,99582.53
2024-01-10T22:07:05.843Z,99585.91
2024-01-10T22:09:33.992Z,99581.59
2024-01-10T22:12:01.965Z,99584.03
2024-01-10T22:14:29.927Z,99580.50
2024-01-10T22:16:59.306Z,99596.03
2024-01-10T22:19:27.475Z,99592.56
2024-01-10T22:21:55.418Z,99592.88
2024-01-10T22:24:23.709Z,99589.78
2024-01-10T22:26:53.071Z,99589.91
2024-01-10T22:29:22.269Z,99582.00
2024-01-10T22:31:52.809Z,99587.91
2024-01-10T22:34:22.268Z,99588.03
2024-01-10T22:36:50.310Z,99588.75
2024-01-10T22:39:18.274Z,99586.00
2024-01-10T22:41:46.186Z,99591.28
2024-01-10T22:44:17.730Z,99596.78
2024-01-10T22:46:46.411Z,99600.38
2024-01-10T22:49:14.980Z,99588.31
2024-01-10T22:51:44.357Z,99595.09
2024-01-10T22:54:14.690Z,99600.25
2024-01-10T22:56:43.710Z,99591.50
2024-01-10T22:59:12.265Z,99595.72
2024-01-10T23:01:40.779Z,99600.06
2024-01-10T23:04:08.727Z,99586.13
2024-01-10T23:06:37.012Z,99598.25
2024-01-10T23:09:06.898Z,99601.63
2024-01-10T23:11:35.786Z,99587.91
2024-01-10T23:14:03.910Z,99585.28
2024-01-10T23:16:31.964Z,99587.91
2024-01-10T23:18:59.982Z,99588.66
2024-01-10T23:21:28.067Z,99582.69
2024-01-10T23:23:58.455Z,99576.66
2024-01-10T23:26:27.806Z,99577.47
2024-01-10T23:28:55.801Z,99580.13
2024-01-10T23:31:23.969Z,99582.84
2024-01-10T23:33:52.128Z,99582.72
2024-01-10T23:36:20.145Z,99590.34
2024-01-10T23:38:48.218Z,99582.69
2024-01-10T23:41:16.292Z,99581.06
2024-01-10T23:43:45.700Z,99578.56
2024-01-10T23:46:13.828Z,99579.75
2024-01-10T23:48:42.019Z,99575.75
2024-01-10T23:51:10.048Z,99571.53
2024-01-10T23:53:38.260Z,99578.47
2024-01-10T23:56:07.993Z,99578.91
2024-01-10T23:58:36.073Z,99566.97
